Flight Track Log - Related Links

Times and Time Zones

All times are in EDT time to prevent confusion due to time zone crossing. See the SWA208 flight status page for this flight to view local times or setup timezone preferences in your user account.

Time Position Orientation Groundspeed Altitude Reporting Facility
EDT Latitude Longitude Course Direction KTS MPH feet Rate Location/Type
Wed 09:11:52 AM 33.4333 -112.0000 90° East 133 153 1,900  Level Phoenix TRACON
Wed 09:13:04 AM 33.4333 -111.9167 90° East 218 251 5,700 3,000 Climbing Phoenix TRACON
Wed 09:14:08 AM 33.4189 -111.8467 104° East 246 283 8,700 2,882 Climbing Albuquerque Center
Wed 09:15:11 AM 33.3608 -111.8531 185° South 260 299 11,800 2,780 Climbing Albuquerque Center
Wed 09:16:11 AM 33.3631 -111.9533 272° West 311 358 14,400 2,800 Climbing Albuquerque Center
Wed 09:17:11 AM 33.3764 -112.0692 278° West 349 402 17,400 3,025 Climbing Albuquerque Center
Wed 09:18:12 AM 33.3892 -112.1919 277° West 367 422 20,500 2,951 Climbing Albuquerque Center
Wed 09:19:13 AM 33.4022 -112.3197 277° West 382 440 23,400 2,607 Climbing Albuquerque Center
Wed 09:20:14 AM 33.4158 -112.4497 277° West 392 451 25,800 2,479 Climbing Albuquerque Center
Wed 09:21:14 AM 33.4319 -112.6103 277° West 402 463 28,400 2,281 Climbing Albuquerque Center
Wed 09:22:15 AM 33.4456 -112.7472 277° West 408 470 30,400 2,164 Climbing Albuquerque Center
Wed 09:23:16 AM 33.4633 -112.8839 279° West 412 474 32,800 2,226 Climbing Albuquerque Center
Wed 09:24:19 AM 33.4894 -113.0144 284° West 411 473 35,000 2,081 Climbing Albuquerque Center
Wed 09:25:20 AM 33.5139 -113.1381 283° West 397 457 37,100 1,900 Climbing Albuquerque Center
Wed 09:26:19 AM 33.5367 -113.2603 283° West 385 443 38,800 1,415 Climbing Albuquerque Center
Wed 09:27:23 AM 33.5592 -113.3806 283° West 376 433 40,000 585 Climbing Albuquerque Center
Wed 09:28:22 AM 33.5828 -113.5008 283° West 373 429 40,000  Level Albuquerque Center
Wed 09:29:24 AM 33.6042 -113.6200 282° West 370 426 40,000  Level Albuquerque Center
Wed 09:30:26 AM 33.6275 -113.7422 283° West 367 422 40,000  Level Albuquerque Center
Wed 09:31:26 AM 33.6517 -113.8594 284° West 364 419 40,000  Level Albuquerque Center
Wed 09:32:26 AM 33.6756 -113.9781 284° West 366 421 40,000  Level Albuquerque Center
Wed 09:33:27 AM 33.6989 -114.0969 283° West 367 422 40,000  Level Albuquerque Center
Wed 09:34:30 AM 33.7261 -114.2342 283° West 365 420 40,000  Level Albuquerque Center
Wed 09:35:31 AM 33.7508 -114.3525 284° West 366 421 40,000  Level Albuquerque Center
Wed 09:36:32 AM 33.7744 -114.4692 284° West 367 422 40,000  Level Los Angeles Center
Wed 09:37:33 AM 33.7975 -114.5889 283° West 369 425 40,000  Level Los Angeles Center
Wed 09:38:34 AM 33.8269 -114.7344 284° West 373 429 40,000  Level Los Angeles Center
Wed 09:39:35 AM 33.8500 -114.8569 283° West 376 433 40,000  Level Los Angeles Center
Wed 09:40:36 AM 33.8753 -114.9794 284° West 377 434 40,000  Level Los Angeles Center
Wed 09:41:38 AM 33.8975 -115.1008 282° West 375 432 40,000  Level Los Angeles Center
Wed 09:42:39 AM 33.9214 -115.2239 283° West 377 434 40,000  Level Los Angeles Center
Wed 09:43:40 AM 33.9453 -115.3458 283° West 377 434 40,000  Level Los Angeles Center
Wed 09:44:41 AM 33.9678 -115.4683 283° West 376 433 40,000  Level Los Angeles Center
Wed 09:45:43 AM 33.9906 -115.5892 283° West 374 430 40,000  Level Los Angeles Center
Wed 09:46:44 AM 34.0136 -115.7089 283° West 371 427 40,000  Level Los Angeles Center
Wed 09:47:45 AM 34.0408 -115.8544 283° West 372 428 40,000  Level Los Angeles Center
Wed 09:48:47 AM 34.0633 -115.9736 283° West 369 425 40,000  Level Los Angeles Center
Wed 09:49:48 AM 34.0844 -116.0947 282° West 370 426 40,000  Level Los Angeles Center
Wed 09:50:49 AM 34.1064 -116.2150 282° West 370 426 40,000  Level Los Angeles Center
Wed 09:51:51 AM 34.1283 -116.3347 283° West 368 423 40,000  Level Los Angeles Center
Wed 09:52:52 AM 34.1506 -116.4578 282° West 370 426 40,000  Level Los Angeles Center
Wed 09:53:54 AM 34.1725 -116.5814 282° West 375 432 40,000  Level Los Angeles Center
Wed 09:54:55 AM 34.1944 -116.7031 282° West 372 428 40,000  Level Los Angeles Center
Wed 09:55:56 AM 34.2156 -116.8222 282° West 366 421 40,000  Level Los Angeles Center
Wed 09:56:58 AM 34.2358 -116.9431 282° West 366 421 40,000  Level Los Angeles Center
Wed 09:57:59 AM 34.2628 -117.0922 282° West 374 430 40,000  Level Los Angeles Center
Wed 09:59:01 AM 34.2803 -117.1881 282° West 378 435 40,000  Level Los Angeles Center
Wed 10:00:02 AM 34.3056 -117.3336 282° West 374 430 40,000  Level Los Angeles Center
Wed 10:01:03 AM 34.3214 -117.4314 281° West 373 429 40,000  Level Los Angeles Center
Wed 10:02:05 AM 34.3472 -117.5775 282° West 372 428 40,000  Level Los Angeles Center
Wed 10:03:07 AM 34.3986 -117.6978 297° West 388 447 40,000  Level Los Angeles Center
Wed 10:04:12 AM 34.4531 -117.8094 301° West 385 443 40,000  Level Los Angeles Center
Wed 10:05:13 AM 34.5092 -117.9214 301° West 387 445 40,000  Level Los Angeles Center
Wed 10:06:26 AM 34.5758 -118.0556 301° West 386 444 40,000  Level Los Angeles Center
Wed 10:07:25 AM 34.6358 -118.1742 302° West 378 435 40,000  Level Los Angeles Center
Wed 10:08:27 AM 34.6947 -118.2983 300° West 384 442 40,000  Level Los Angeles Center
Wed 10:09:28 AM 34.7497 -118.4089 301° West 383 441 40,000  Level Los Angeles Center
Wed 10:10:30 AM 34.8069 -118.5239 301° West 371 427 40,000  Level Los Angeles Center
Wed 10:11:31 AM 34.8586 -118.6319 300° West 372 428 40,000  Level Los Angeles Center
Wed 10:12:33 AM 34.9072 -118.7311 301° West 373 429 40,000  Level Los Angeles Center
Wed 10:13:35 AM 34.9608 -118.8400 301° West 374 430 40,000  Level Los Angeles Center
Wed 10:14:36 AM 35.0036 -118.9269 301° West 374 430 40,000  Level Los Angeles Center
Wed 10:15:38 AM 35.0778 -119.0819 300° West 376 433 40,000  Level Los Angeles Center
Wed 10:16:40 AM 35.1319 -119.1939 301° West 379 436 40,000  Level Los Angeles Center
Wed 10:17:41 AM 35.1858 -119.3058 301° West 382 440 40,000  Level Los Angeles Center
Wed 10:18:43 AM 35.2403 -119.4183 301° West 384 442 40,000  Level Los Angeles Center
Wed 10:19:45 AM 35.2950 -119.5308 301° West 385 443 40,000  Level Los Angeles Center
Wed 10:20:46 AM 35.3472 -119.6436 300° West 384 442 40,000  Level Los Angeles Center
Wed 10:21:48 AM 35.4117 -119.7781 300° West 383 441 40,000  Level Los Angeles Center
Wed 10:22:50 AM 35.4656 -119.8908 300° West 383 441 40,000  Level Los Angeles Center
Wed 10:23:52 AM 35.5178 -120.0042 300° West 385 443 40,000  Level Los Angeles Center
Wed 10:24:53 AM 35.5706 -120.1158 300° West 384 442 40,000  Level Los Angeles Center
Wed 10:25:55 AM 35.6233 -120.2294 300° West 384 442 40,000  Level Los Angeles Center
Wed 10:26:57 AM 35.6856 -120.3642 300° West 387 445 40,000  Level Los Angeles Center
Wed 10:27:58 AM 35.7519 -120.4656 309° West 389 448 40,000  Level Los Angeles Center
Wed 10:29:00 AM 35.8233 -120.5597 313° West 381 438 40,000 -387 Level Los Angeles Center
Wed 10:30:02 AM 35.8953 -120.6572 312° West 384 442 39,200 -871 Descending Los Angeles Center
Wed 10:31:04 AM 35.9669 -120.7544 312° West 384 442 38,200 -1,742 Descending Los Angeles Center
Wed 10:32:06 AM 36.0367 -120.8481 313° West 370 426 35,600 -2,980 Descending Los Angeles Center
Wed 10:33:31 AM 36.1481 -120.9997 312° West 373 429 30,900 -2,898 Descending Oakland Center
Wed 10:34:33 AM 36.2147 -121.0908 312° West 364 419 28,500 -2,293 Descending Oakland Center
Wed 10:35:34 AM 36.2792 -121.1792 312° West 350 403 26,200 -2,311 Descending Oakland Center
Wed 10:36:35 AM 36.3464 -121.2675 313° West 350 403 23,800 -2,293 Descending Oakland Center
Wed 10:37:37 AM 36.4075 -121.3536 311° West 337 388 21,500 -2,361 Descending Oakland Center
Wed 10:38:37 AM 36.4719 -121.4314 316° Northwest 325 374 19,000 -1,770 Descending Oakland Center
Wed 10:39:39 AM 36.5669 -121.4500 351° North 337 388 17,900 -1,463 Descending Oakland Center
Wed 10:40:40 AM 36.6561 -121.4725 349° North 328 377 16,000 -1,918 Descending Oakland Center
Wed 10:41:41 AM 36.7417 -121.4942 349° North 318 366 14,000 -2,016 Descending Oakland Center
Wed 10:42:42 AM 36.8292 -121.5178 348° North 310 357 11,900 -1,756 Descending Oakland Center
Wed 10:43:44 AM 36.9106 -121.5411 347° North 304 350 10,400 -1,561 Descending Oakland Center
Wed 10:44:45 AM 36.9711 -121.5869 329° Northwest 264 304 8,700 -1,721 Descending Oakland Center
Wed 10:45:46 AM 37.0489 -121.6400 331° Northwest 263 303 6,900 -1,623 Descending Oakland Center
Wed 10:46:47 AM 37.1094 -121.6797 332° Northwest 250 288 5,400 -976 Descending Oakland Center
Wed 10:47:49 AM 37.1667 -121.7186 332° Northwest 238 274 4,900 -780 Descending Oakland Center
Wed 10:48:50 AM 37.2117 -121.7636 321° Northwest 221 254 3,800 -1,082 Descending Oakland Center
Wed 10:49:51 AM 37.2533 -121.8117 317° Northwest 211 243 2,700 -1,033 Descending Oakland Center
Wed 10:50:52 AM 37.2897 -121.8517 319° Northwest 191 220 1,700 -829 Descending Oakland Center
Wed 10:51:54 AM 37.3186 -121.8842 318° Northwest 158 182 1,000 -683 Descending Oakland Center
Wed 10:52:55 AM 37.3439 -121.9106 320° Northwest 136 157 300 -689 Descending Oakland Center
Wed 10:54:00 AM 37.3500 -121.9167 North  Level FlightAware Approximate
Wed 11:01:00 AM 37.3627 -121.9291 North  Level Estimated

Login

Don't have an account? Register now (free) for customized features, flight alerts, and more!